Data for 05/31/2005

Time Sea-Level Adjusted Pressure Absolute Pressure Temperature Relative Humidity Dew Point   
(mb) (inHg) (mb) (inHg) (C) (F) (%) (C) (F)
00:05 1017 30.03 847 25.01 5.4 41.7 73 1 33.8
00:10 1017 30.03 847 25.01 5.4 41.7 74 1.1 33.9
00:15 1018 30.06 847 25.01 5.3 41.5 74 1 33.7
00:20 1018 30.06 847 25.01 5.3 41.5 73 0.9 33.6
00:25 1017 30.03 847 25.01 5.5 41.9 73 1.1 33.9
00:30 1017 30.03 847 25.01 5.5 42 74 1.2 34.2
00:35 1017 30.03 847 25.01 5.3 41.6 75 1.2 34.2
00:40 1017 30.03 847 25.01 5.4 41.7 74 1.2 34.2
00:45 1017 30.03 847 25.01 5.4 41.8 74 1.2 34.1
00:50 1017 30.03 847 25.01 5.4 41.7 74 1.2 34.2
00:55 1017 30.03 847 25.01 5.3 41.5 75 1.2 34.1
01:00 1017 30.03 847 25.01 5.1 41.3 75 1.1 34
01:05 1017 30.03 847 25.01 5.1 41.2 75 1.1 33.9
01:10 1018 30.06 847 25.01 4.9 40.9 76 1 33.8
01:15 1017 30.03 847 25.01 4.9 40.8 76 1 33.8
01:20 1017 30.03 846 24.98 4.8 40.7 77 1.1 34
01:25 1017 30.03 846 24.98 4.8 40.7 77 1.2 34.2
01:30 1017 30.03 846 24.98 4.9 40.7 77 1.2 34.2
01:35 1017 30.03 846 24.98 4.8 40.7 78 1.3 34.4
01:40 1017 30.03 846 24.98 4.8 40.7 77 1.2 34.2
01:45 1017 30.03 846 24.98 4.9 40.8 77 1.2 34.2
01:50 1017 30.03 846 24.98 4.9 40.9 77 1.2 34.2
01:55 1017 30.03 846 24.98 5.1 41.1 77 1.3 34.3
02:00 1017 30.03 846 24.98 5.2 41.3 76 1.2 34.2
02:05 1017 30.03 846 24.98 5.2 41.4 76 1.3 34.3
02:10 1017 30.03 846 24.98 5.3 41.5 75 1.2 34.2
02:15 1017 30.03 846 24.98 5.4 41.7 75 1.3 34.3
02:20 1017 30.03 846 24.98 5.4 41.7 75 1.3 34.4
02:25 1017 30.03 846 24.98 5.2 41.4 76 1.3 34.4
02:30 1017 30.03 846 24.98 5 41 77 1.3 34.3
02:35 1017 30.03 846 24.98 4.8 40.6 78 1.3 34.3
02:40 1017 30.03 846 24.98 4.8 40.6 77 1 33.8
02:45 1017 30.03 846 24.98 4.9 40.8 76 0.9 33.7
02:50 1017 30.03 846 24.98 4.9 40.8 77 1.1 34
02:55 1017 30.03 846 24.98 4.7 40.5 77 1.1 34
03:00 1017 30.03 846 24.98 4.7 40.4 77 1 33.8
03:05 1017 30.03 846 24.98 4.6 40.3 77 0.9 33.6
03:10 1017 30.03 846 24.98 4.6 40.3 77 0.9 33.6
03:15 1017 30.03 846 24.98 4.5 40.2 77 0.8 33.5
03:20 1017 30.03 846 24.98 4.5 40 77 0.8 33.4
03:25 1017 30.03 846 24.98 4.6 40.2 76 0.8 33.4
03:30 1017 30.03 846 24.98 4.6 40.3 77 0.9 33.5
03:35 1017 30.03 846 24.98 4.5 40 77 0.8 33.4
03:40 1017 30.03 846 24.98 4.4 39.8 78 0.8 33.4
03:45 1017 30.03 846 24.98 4.3 39.7 78 0.7 33.3
03:50 1017 30.03 846 24.98 4.3 39.7 78 0.7 33.3
03:55 1017 30.03 846 24.98 4.3 39.7 77 0.6 33.1
04:00 1017 30.03 846 24.98 4.3 39.7 77 0.6 33.1
04:05 1017 30.03 846 24.98 4.2 39.6 77 0.5 32.9
04:10 1017 30.03 846 24.98 4.2 39.5 77 0.5 32.8
04:15 1017 30.03 846 24.98 4.1 39.5 77 0.5 32.9
04:20 1017 30.03 846 24.98 4.2 39.5 78 0.7 33.2
04:25 1017 30.03 846 24.98 4.2 39.6 77 0.6 33.1
04:30 1017 30.03 846 24.98 4.3 39.7 77 0.6 33.1
04:35 1017 30.03 846 24.98 4.4 39.8 77 0.6 33.1
04:40 1017 30.03 846 24.98 4.4 39.9 77 0.7 33.2
04:45 1017 30.03 846 24.98 4.4 39.9 77 0.7 33.2
04:50 1017 30.03 846 24.98 4.3 39.8 77 0.6 33
04:55 1017 30.03 846 24.98 4.2 39.6 77 0.6 33
05:00 1017 30.03 846 24.98 4 39.2 77 0.4 32.8
05:05 1017 30.03 846 24.98 3.9 39 78 0.4 32.8
05:10 1017 30.03 846 24.98 3.7 38.6 79 0.4 32.6
05:15 1017 30.03 846 24.98 3.6 38.5 80 0.4 32.7
05:20 1017 30.03 846 24.98 3.5 38.3 80 0.4 32.6
05:25 1017 30.03 846 24.98 3.5 38.3 80 0.4 32.7
05:30 1017 30.03 846 24.98 3.4 38.1 81 0.4 32.7
05:35 1017 30.03 846 24.98 3.3 38 81 0.3 32.5
05:40 1017 30.03 846 24.98 3.3 38 80 0.2 32.4
05:45 1016 30 846 24.98 3.4 38.2 80 0.2 32.4
05:50 1016 30 846 24.98 3.4 38.1 80 0.2 32.4
05:55 1016 30 846 24.98 3.3 38 80 0.2 32.3
06:00 1016 30 846 24.98 3.5 38.2 78 0 32.1
06:05 1016 30 846 24.98 3.8 38.9 77 0.1 32.2
06:10 1016 30 846 24.98 4.1 39.3 76 0.2 32.4
06:15 1016 30 846 24.98 4.2 39.5 75 0.1 32.2
06:20 1017 30.03 846 24.98 4.4 39.9 74 0.1 32.2
06:25 1017 30.03 846 24.98 4.6 40.3 73 0.3 32.5
06:30 1017 30.03 846 24.98 4.5 40.1 74 0.3 32.5
06:35 1017 30.03 846 24.98 4.5 40.2 74 0.3 32.5
06:40 1017 30.03 846 24.98 4.7 40.5 73 0.3 32.6
06:45 1017 30.03 846 24.98 4.7 40.4 74 0.4 32.6
06:50 1017 30.03 846 24.98 4.7 40.4 73 0.3 32.6
06:55 1017 30.03 846 24.98 4.8 40.7 73 0.4 32.7
07:00 1017 30.03 846 24.98 5.3 41.5 71 0.4 32.8
07:05 1017 30.03 846 24.98 5.7 42.2 70 0.7 33.2
07:10 1017 30.03 846 24.98 6.1 42.9 69 0.7 33.3
07:15 1017 30.03 846 24.98 6.1 42.9 69 0.8 33.4
07:20 1017 30.03 846 24.98 6.2 43.2 68 0.8 33.5
07:25 1017 30.03 846 24.98 6.9 44.3 64 0.6 33.2
07:30 1017 30.03 846 24.98 7.7 45.9 62 0.9 33.7
07:35 1016 30 846 24.98 8 46.3 61 1 33.9
07:40 1016 30 846 24.98 8.4 47.1 60 1.1 33.9
07:45 1016 30 846 24.98 9.4 48.9 55 0.8 33.4
07:50 1016 30 846 24.98 9.6 49.2 54 0.8 33.5
07:55 1016 30 846 24.98 9.6 49.3 56 1.3 34.4
08:00 1016 30 846 24.98 9.9 49.8 57 1.8 35.2
08:05 1016 30 846 24.98 9.9 49.8 57 1.8 35.2
08:10 1016 30 845 24.95 9.8 49.6 56 1.4 34.5
08:15 1016 30 845 24.95 9.2 48.5 58 1.3 34.4
08:20 1016 30 845 24.95 9.2 48.6 57 1.1 34
08:25 1016 30 845 24.95 9.3 48.8 56 1.1 33.9
08:30 1016 30 846 24.98 9.6 49.3 55 0.9 33.7
08:35 1016 30 845 24.95 10 50 54 1.2 34.1
08:40 1016 30 846 24.98 10.3 50.5 54 1.3 34.3
08:45 1016 30 846 24.98 10.7 51.2 54 1.8 35.2
08:50 1016 30 845 24.95 10.5 50.8 54 1.6 34.9
08:55 1016 30 845 24.95 10.6 51.1 54 1.7 35.1
09:00 1016 30 845 24.95 9.9 49.9 56 1.6 34.8
09:05 1016 30 845 24.95 10.3 50.5 55 1.6 34.8
09:10 1016 30 845 24.95 10.8 51.5 53 1.6 34.8
09:15 1016 30 845 24.95 11 51.8 53 2 35.6
09:20 1016 30 845 24.95 11.3 52.4 52 1.9 35.4
09:25 1016 30 845 24.95 12.1 53.8 49 1.9 35.4
09:30 1016 30 845 24.95 12.6 54.7 46 1.4 34.5
09:35 1016 30 845 24.95 12.1 53.7 49 1.7 35
09:40 1016 30 845 24.95 12.3 54.1 47 1.5 34.7
09:45 1016 30 845 24.95 12.6 54.7 45 1.1 33.9
09:50 1016 30 845 24.95 13.7 56.7 44 1.9 35.4
09:55 1016 30 845 24.95 14 57.1 42 1.4 34.6
10:00 1016 30 845 24.95 14.3 57.7 41 1.3 34.4
10:05 1016 30 845 24.95 14.4 57.8 42 1.6 34.9
10:10 1016 30 845 24.95 14.6 58.4 41 1.5 34.6
10:15 1016 30 845 24.95 14.8 58.7 40 1.5 34.7
10:20 1016 30 845 24.95 14.4 58 42 1.7 35
10:25 1016 30 845 24.95 14.4 57.8 43 2.1 35.8
10:30 1016 30 845 24.95 14.4 57.9 43 2 35.6
10:35 1016 30 845 24.95 14.3 57.7 43 1.9 35.4
10:40 1016 30 845 24.95 14.1 57.3 44 2.1 35.8
10:45 1016 30 845 24.95 14.2 57.6 43 2 35.6
10:50 1016 30 845 24.95 14.9 58.8 45 3.2 37.8
10:55 1016 30 845 24.95 14.9 58.8 43 2.7 36.8
11:00 1016 30 845 24.95 14.8 58.7 43 2.4 36.2
11:05 1016 30 845 24.95 15.4 59.8 41 2.3 36.1
11:10 1016 30 845 24.95 15 58.9 41 1.9 35.4
11:15 1016 30 845 24.95 15.1 59.1 39 1.3 34.3
11:20 1016 30 845 24.95 15.1 59.1 42 2.2 36
11:25 1016 30 845 24.95 14.8 58.6 42 2 35.6
11:30 1016 30 845 24.95 14.8 58.6 42 2.2 35.9
11:35 1016 30 845 24.95 14.6 58.2 44 2.4 36.4
11:40 1016 30 845 24.95 14.4 57.9 44 2.4 36.3
11:45 1016 30 845 24.95 14.7 58.5 42 2 35.6
11:50 1016 30 845 24.95 14.6 58.3 44 2.4 36.4
11:55 1016 30 845 24.95 14.7 58.4 42 1.8 35.3
12:00 1016 30 845 24.95 15.1 59.2 42 2.5 36.5
12:05 1016 30 845 24.95 15.4 59.7 39 1.6 35
12:10 1016 30 845 24.95 15.5 59.9 39 1.7 35
12:15 1015 29.97 845 24.95 16 60.8 36 1.2 34.2
12:20 1015 29.97 845 24.95 16.1 60.9 37 1.5 34.7
12:25 1016 30 845 24.95 15.3 59.5 41 2.2 36
12:30 1016 30 845 24.95 15.3 59.5 38 1.1 34
12:35 1016 30 845 24.95 16.5 61.8 38 2.2 35.9
12:40 1016 30 845 24.95 16.9 62.5 35 1.6 34.9
12:45 1016 30 845 24.95 16.4 61.4 38 2.1 35.8
12:50 1016 30 845 24.95 15.7 60.2 39 1.8 35.3
12:55 1016 30 845 24.95 16 60.8 38 1.8 35.2
13:00 1015 29.97 845 24.95 16.4 61.5 38 2 35.6
13:05 1016 30 845 24.95 15.7 60.2 41 2.4 36.4
13:10 1016 30 845 24.95 15.4 59.6 39 1.6 34.8
13:15 1015 29.97 845 24.95 15.3 59.5 40 1.9 35.4
13:20 1015 29.97 845 24.95 15.3 59.6 38 1.4 34.4
13:25 1015 29.97 845 24.95 15.5 59.8 40 1.9 35.4
13:30 1015 29.97 845 24.95 15.3 59.5 40 2 35.6
13:35 1015 29.97 845 24.95 15.3 59.6 40 2.1 35.7
13:40 1015 29.97 845 24.95 15.3 59.6 43 2.8 37.1
13:45 1015 29.97 845 24.95 15.5 59.8 44 3.5 38.3
13:50 1015 29.97 845 24.95 15.2 59.4 46 3.7 38.6
13:55 1015 29.97 845 24.95 15.3 59.6 45 3.5 38.3
14:00 1015 29.97 845 24.95 15.2 59.4 46 3.8 38.8
14:05 1015 29.97 845 24.95 15.1 59.1 46 3.7 38.6
14:10 1015 29.97 845 24.95 14.7 58.5 47 3.6 38.4
14:15 1015 29.97 845 24.95 14.5 58 46 3.2 37.8
14:20 1015 29.97 845 24.95 14.4 57.8 48 3.5 38.3
14:25 1015 29.97 845 24.95 14.7 58.5 47 3.6 38.4
14:30 1015 29.97 844 24.92 15.2 59.3 45 3.4 38.1
14:35 1015 29.97 844 24.92 15.3 59.6 47 4.1 39.5
14:40 1015 29.97 844 24.92 14.8 58.6 46 3.3 37.9
14:45 1015 29.97 844 24.92 15.6 60 44 3.5 38.4
14:50 1015 29.97 844 24.92 15.5 60 45 3.7 38.7
14:55 1015 29.97 844 24.92 15.4 59.8 44 3.3 38
15:00 1015 29.97 844 24.92 15.4 59.6 47 4.1 39.4
15:05 1015 29.97 844 24.92 15.7 60.2 45 3.7 38.7
15:10 1015 29.97 844 24.92 15.4 59.7 46 4 39.3
15:15 1015 29.97 844 24.92 14.9 58.8 49 4.3 39.8
15:20 1015 29.97 844 24.92 15.6 60 45 3.9 39
15:25 1015 29.97 844 24.92 16.2 61.2 43 3.7 38.6
15:30 1015 29.97 844 24.92 16.2 61.2 43 3.9 39
15:35 1015 29.97 844 24.92 15.1 59.1 47 3.8 38.9
15:40 1015 29.97 844 24.92 14.3 57.8 50 4 39.2
15:45 1015 29.97 844 24.92 14.4 58 51 4.6 40.3
15:50 1015 29.97 844 24.92 14.5 58.1 51 4.5 40.2
15:55 1015 29.97 844 24.92 15.2 59.3 49 4.6 40.3
16:00 1015 29.97 844 24.92 15.4 59.7 49 4.7 40.5
16:05 1015 29.97 844 24.92 15.5 59.9 50 5.2 41.3
16:10 1015 29.97 844 24.92 15.9 60.7 46 4.5 40.1
16:15 1015 29.97 844 24.92 16.8 62.2 45 5 41.1
16:20 1015 29.97 844 24.92 15.6 60.1 50 5.3 41.6
16:25 1014 29.94 844 24.92 15.7 60.2 46 4.2 39.5
16:30 1014 29.94 844 24.92 16.7 62 40 3.2 37.7
16:35 1014 29.94 843 24.89 17 62.7 40 3.5 38.4
16:40 1014 29.94 843 24.89 17.3 63.1 42 4.2 39.6
16:45 1014 29.94 843 24.89 17.2 63 43 4.5 40.1
16:50 1014 29.94 843 24.89 17.6 63.6 36 2.4 36.3
16:55 1014 29.94 843 24.89 18.3 65 35 2.9 37.2
17:00 1014 29.94 843 24.89 18.3 64.9 35 2.9 37.2
17:05 1014 29.94 843 24.89 17.8 64 39 3.9 39.1
17:10 1014 29.94 843 24.89 17.2 62.9 40 3.5 38.3
17:15 1014 29.94 843 24.89 17.3 63.2 41 4.1 39.4
17:20 1014 29.94 843 24.89 17.5 63.4 41 4.3 39.7
17:25 1014 29.94 843 24.89 16.9 62.5 43 4.5 40
17:30 1014 29.94 843 24.89 17 62.6 41 3.9 39.1
17:35 1014 29.94 843 24.89 17.7 63.8 41 4.2 39.6
17:40 1014 29.94 843 24.89 17.2 62.9 42 4.1 39.4
17:45 1014 29.94 843 24.89 17.1 62.8 42 4.3 39.7
17:50 1014 29.94 843 24.89 16.7 62 44 4.4 39.9
17:55 1014 29.94 843 24.89 16.7 62 42 3.7 38.7
18:00 1014 29.94 843 24.89 17.3 63.1 40 3.7 38.6
18:05 1013 29.91 843 24.89 17.5 63.5 39 3.6 38.5
18:10 1013 29.91 843 24.89 17.7 63.8 40 4.2 39.5
18:15 1013 29.91 843 24.89 17.2 63 42 4.4 40
18:20 1013 29.91 842 24.86 17.2 62.9 42 4.3 39.7
18:25 1013 29.91 842 24.86 17.3 63.1 43 4.5 40.2
18:30 1013 29.91 842 24.86 16.9 62.4 44 4.8 40.7
18:35 1013 29.91 842 24.86 16.6 61.9 45 4.7 40.5
18:40 1013 29.91 842 24.86 16.7 62 45 4.7 40.5
18:45 1013 29.91 842 24.86 16.9 62.3 44 4.6 40.2
18:50 1013 29.91 842 24.86 16.7 62 44 4.4 40
18:55 1013 29.91 842 24.86 16.8 62.2 44 4.6 40.3
19:00 1013 29.91 842 24.86 16.7 62.1 44 4.5 40
19:05 1013 29.91 842 24.86 16.7 62 44 4.4 39.9
19:10 1013 29.91 842 24.86 16.8 62.2 44 4.5 40.1
19:15 1013 29.91 842 24.86 16.3 61.3 46 4.8 40.6
19:20 1013 29.91 842 24.86 15.9 60.6 47 4.7 40.5
19:25 1013 29.91 842 24.86 15.8 60.5 47 4.7 40.4
19:30 1013 29.91 842 24.86 15.7 60.2 47 4.6 40.4
19:35 1013 29.91 842 24.86 15.7 60.2 48 4.9 40.8
19:40 1013 29.91 842 24.86 15.5 59.8 48 4.7 40.5
19:45 1013 29.91 842 24.86 15.3 59.5 50 5.1 41.1
19:50 1013 29.91 842 24.86 15.1 59.2 51 5.2 41.3
19:55 1013 29.91 842 24.86 15 59 52 5.2 41.3
20:00 1013 29.91 842 24.86 15 59.1 52 5.2 41.4
20:05 1013 29.91 842 24.86 15 59 51 5.2 41.3
20:10 1013 29.91 842 24.86 15.1 59.2 51 5 41.1
20:15 1013 29.91 842 24.86 15.2 59.4 50 5.1 41.2
20:20 1013 29.91 842 24.86 15.2 59.3 50 5 41
20:25 1013 29.91 842 24.86 15.1 59.2 52 5.5 41.9
20:30 1013 29.91 842 24.86 14.6 58.3 55 5.8 42.4
20:35 1013 29.91 842 24.86 14.3 57.7 56 5.6 42.1
20:40 1013 29.91 842 24.86 14.1 57.4 55 5.2 41.4
20:45 1013 29.91 842 24.86 14 57.3 55 5.2 41.4
20:50 1012 29.88 842 24.86 14.1 57.3 55 5.1 41.2
20:55 1012 29.88 842 24.86 14.2 57.5 54 5.1 41.2
21:00 1012 29.88 842 24.86 14.2 57.5 55 5.3 41.5
21:05 1012 29.88 842 24.86 14.2 57.6 55 5.3 41.5
21:10 1012 29.88 842 24.86 14.2 57.6 54 5 41
21:15 1012 29.88 842 24.86 14.3 57.7 54 5.2 41.4
21:20 1012 29.88 841 24.83 14.2 57.6 54 5.2 41.3
21:25 1012 29.88 841 24.83 14.2 57.6 55 5.4 41.8
21:30 1012 29.88 841 24.83 14.2 57.5 56 5.6 42.1
21:35 1012 29.88 842 24.86 14 57.1 57 5.5 41.9
21:40 1012 29.88 841 24.83 13.8 56.9 57 5.4 41.8
21:45 1012 29.88 841 24.83 13.8 56.8 57 5.5 41.8
21:50 1012 29.88 841 24.83 13.8 56.8 57 5.5 41.9
21:55 1012 29.88 841 24.83 13.7 56.6 59 5.9 42.5
22:00 1012 29.88 841 24.83 13.5 56.2 60 5.9 42.6
22:05 1012 29.88 841 24.83 13.4 56.1 60 5.9 42.6
22:10 1012 29.88 841 24.83 13.3 56 60 5.8 42.5
22:15 1012 29.88 841 24.83 13.1 55.5 62 5.9 42.6
22:20 1012 29.88 841 24.83 13 55.3 62 5.9 42.7
22:25 1012 29.88 841 24.83 12.6 54.7 65 6.2 43.1
22:30 1012 29.88 841 24.83 12.4 54.3 65 6 42.7
22:35 1012 29.88 841 24.83 12.4 54.4 64 5.9 42.6
22:40 1012 29.88 841 24.83 12.1 53.7 67 6.1 43.1
22:45 1012 29.88 841 24.83 11.8 53.2 67 5.9 42.7
22:50 1012 29.88 841 24.83 11.6 52.9 66 5.6 42.2
22:55 1012 29.88 841 24.83 11.7 53.1 66 5.7 42.3
23:00 1012 29.88 841 24.83 11.9 53.4 66 5.8 42.4
23:05 1012 29.88 841 24.83 11.9 53.3 65 5.6 42
23:10 1012 29.88 841 24.83 11.9 53.4 66 5.7 42.3
23:15 1012 29.88 841 24.83 11.9 53.4 65 5.6 42.2
23:20 1011 29.85 841 24.83 12.1 53.8 65 5.8 42.4
23:25 1011 29.85 841 24.83 12.2 53.9 66 6.1 42.9
23:30 1011 29.85 840 24.81 12 53.6 66 5.9 42.7
23:35 1011 29.85 840 24.81 11.9 53.5 66 5.9 42.7
23:40 1011 29.85 840 24.81 11.8 53.3 68 6.2 43.2
23:45 1011 29.85 840 24.81 11.5 52.6 69 6 42.8
23:50 1011 29.85 840 24.81 11.3 52.3 69 5.9 42.6
23:55 1011 29.85 840 24.81 11.2 52.1 69 5.7 42.2
24:00 1011 29.85 840 24.81 11.4 52.6 69 5.9 42.7